Time;durP1;ratioP1;P1;durP2;ratioP2;P2;SDS_P1;SDS_P2;PMS_P1;PMS_P2;Temp;Humidity;BMP_temperature;BMP_pressure;BME280_temperature;BME280_humidity;BME280_pressure;Samples;Min_cycle;Max_cycle;Signal;HPM_P1;HPM_P2
2022/01/14 00:01:51;;;;;;;11.23;4.73;;;10.30;99.90;;;;;;5027815;28;20241;-78
2022/01/14 00:04:18;;;;;;;13.37;4.37;;;10.30;99.90;;;;;;5042901;28;20233;-77
2022/01/14 00:06:46;;;;;;;11.93;3.73;;;10.30;99.90;;;;;;5023145;28;20230;-77
2022/01/14 00:09:14;;;;;;;9.87;4.20;;;10.20;99.90;;;;;;5046621;28;20228;-77
2022/01/14 00:11:46;;;;;;;13.03;3.93;;;10.20;99.90;;;;;;5043233;28;20579;-78
2022/01/14 00:14:23;;;;;;;10.13;4.30;;;10.20;99.90;;;;;;5029872;28;20389;-78
2022/01/14 00:16:50;;;;;;;14.07;4.70;;;10.20;99.90;;;;;;5029214;28;20233;-77
2022/01/14 00:19:17;;;;;;;13.63;4.70;;;10.20;99.90;;;;;;5037625;28;20221;-77
2022/01/14 00:21:44;;;;;;;11.60;4.23;;;10.20;99.90;;;;;;5035891;28;20812;-78
2022/01/14 00:24:24;;;;;;;14.67;4.90;;;10.20;99.90;;;;;;5036706;28;20226;-78
2022/01/14 00:32:25;;;;;;;11.80;4.50;;;10.20;99.90;;;;;;5024591;28;20222;-77
2022/01/14 00:34:52;;;;;;;11.90;5.43;;;10.10;99.90;;;;;;5026824;28;20236;-77
2022/01/14 00:37:19;;;;;;;18.70;5.07;;;10.10;99.90;;;;;;5044220;28;20229;-77
2022/01/14 00:39:47;;;;;;;14.43;5.17;;;10.10;99.90;;;;;;5040889;28;20233;-78
2022/01/14 00:42:14;;;;;;;12.67;4.67;;;10.10;99.90;;;;;;5046224;28;20226;-78
2022/01/14 00:44:41;;;;;;;16.07;5.53;;;10.10;99.90;;;;;;5048486;28;20240;-78
2022/01/14 00:47:08;;;;;;;14.53;5.83;;;10.00;99.90;;;;;;5031301;28;20693;-78
2022/01/14 00:49:35;;;;;;;14.57;4.87;;;10.00;99.90;;;;;;5040099;28;20242;-77
2022/01/14 00:52:02;;;;;;;14.70;5.53;;;10.00;99.90;;;;;;5033982;28;20245;-78
2022/01/14 00:54:28;;;;;;;11.20;5.60;;;10.00;99.90;;;;;;5047436;28;20233;-78
2022/01/14 00:57:15;;;;;;;15.67;4.90;;;10.00;99.90;;;;;;5033162;28;20232;-77
2022/01/14 00:59:41;;;;;;;11.43;4.70;;;10.00;99.90;;;;;;5041633;28;20311;-77
2022/01/14 01:02:08;;;;;;;16.47;5.07;;;9.90;99.90;;;;;;5044888;28;20217;-77
2022/01/14 01:04:38;;;;;;;11.83;4.77;;;9.90;99.90;;;;;;5024601;28;20234;-77
2022/01/14 01:07:07;;;;;;;15.10;5.47;;;9.90;99.90;;;;;;5044631;28;20702;-77
2022/01/14 01:09:36;;;;;;;16.47;5.10;;;9.90;99.90;;;;;;5020271;28;20230;-76
2022/01/14 01:12:10;;;;;;;12.63;5.20;;;9.90;99.90;;;;;;5044872;28;20225;-76
2022/01/14 01:14:43;;;;;;;13.70;4.93;;;9.90;99.90;;;;;;5052268;28;20233;-76
2022/01/14 01:17:10;;;;;;;17.63;4.73;;;9.90;99.90;;;;;;5045354;28;20354;-77
2022/01/14 01:19:37;;;;;;;14.90;5.00;;;9.90;99.90;;;;;;5047097;28;20819;-76
2022/01/14 01:22:04;;;;;;;10.70;4.37;;;9.90;99.90;;;;;;5039676;28;20232;-76
2022/01/14 01:24:43;;;;;;;12.80;4.20;;;9.90;99.90;;;;;;5035261;28;20265;-78
2022/01/14 01:27:13;;;;;;;14.30;4.53;;;9.90;99.90;;;;;;5041682;28;20228;-78
2022/01/14 01:29:49;;;;;;;9.70;4.33;;;9.80;99.90;;;;;;5053335;28;20233;-78
2022/01/14 01:32:16;;;;;;;8.10;3.57;;;9.80;99.90;;;;;;5044275;28;20254;-77
2022/01/14 01:34:43;;;;;;;10.47;4.23;;;9.80;99.90;;;;;;5028217;28;20256;-78
2022/01/14 01:37:10;;;;;;;12.47;4.00;;;9.80;99.90;;;;;;5042866;28;20225;-77
2022/01/14 01:39:37;;;;;;;7.50;3.80;;;9.80;99.90;;;;;;5048699;28;20337;-78
2022/01/14 01:42:08;;;;;;;13.20;4.40;;;9.80;99.90;;;;;;5043674;28;20256;-78
2022/01/14 01:44:39;;;;;;;11.10;4.27;;;9.80;99.90;;;;;;5048535;28;20250;-78
2022/01/14 01:47:06;;;;;;;10.73;4.30;;;9.80;99.90;;;;;;5051960;28;20228;-78
2022/01/14 01:49:35;;;;;;;9.60;3.77;;;9.80;99.90;;;;;;5050942;28;20237;-78
2022/01/14 01:52:03;;;;;;;9.97;3.93;;;9.80;99.90;;;;;;5045971;28;20867;-78
2022/01/14 01:54:30;;;;;;;15.87;4.73;;;9.80;99.90;;;;;;5039144;28;20778;-78
2022/01/14 01:56:58;;;;;;;9.63;4.07;;;9.80;99.90;;;;;;5022615;28;20227;-78
2022/01/14 01:59:26;;;;;;;10.60;4.07;;;9.80;99.90;;;;;;5029213;28;20244;-78
2022/01/14 02:01:57;;;;;;;12.90;4.23;;;9.80;99.90;;;;;;5030689;28;20234;-78
2022/01/14 02:04:24;;;;;;;9.87;3.93;;;9.80;99.90;;;;;;5032633;28;20305;-78
2022/01/14 02:06:53;;;;;;;14.57;3.70;;;9.80;99.90;;;;;;5040831;28;20602;-78
2022/01/14 02:09:20;;;;;;;11.90;4.13;;;9.80;99.90;;;;;;5025160;28;21016;-77
2022/01/14 02:11:47;;;;;;;12.67;4.87;;;9.80;99.90;;;;;;5034291;28;20242;-78
2022/01/14 02:14:28;;;;;;;9.87;3.77;;;9.80;99.90;;;;;;5045082;28;20231;-78
2022/01/14 02:17:28;;;;;;;9.93;3.80;;;9.80;99.90;;;;;;5027311;28;20232;-79
2022/01/14 02:22:48;;;;;;;13.30;3.80;;;9.80;99.90;;;;;;5037552;28;20261;-79
2022/01/14 02:25:16;;;;;;;14.17;4.57;;;9.80;99.90;;;;;;5033709;28;20225;-78
2022/01/14 02:27:44;;;;;;;11.50;4.23;;;9.80;99.90;;;;;;5024716;28;20725;-79
2022/01/14 02:30:11;;;;;;;10.33;4.30;;;9.80;99.90;;;;;;5030880;28;20227;-79
2022/01/14 02:32:39;;;;;;;12.20;4.57;;;9.80;99.90;;;;;;5044631;28;20240;-79
2022/01/14 02:35:09;;;;;;;11.13;4.10;;;9.80;99.90;;;;;;5049512;28;20236;-78
2022/01/14 02:37:36;;;;;;;12.73;3.90;;;9.80;99.90;;;;;;5027115;28;20218;-78
2022/01/14 02:40:04;;;;;;;9.80;4.23;;;9.80;99.90;;;;;;5034842;28;20225;-78
2022/01/14 02:42:31;;;;;;;10.33;3.67;;;9.80;99.90;;;;;;5045613;28;20799;-78
2022/01/14 02:45:02;;;;;;;6.77;3.03;;;9.80;99.90;;;;;;5026543;28;20315;-78
2022/01/14 02:47:29;;;;;;;10.47;3.77;;;9.80;99.90;;;;;;5027551;28;20225;-78
2022/01/14 02:49:55;;;;;;;17.00;3.90;;;9.80;99.90;;;;;;5028376;28;20226;-78
2022/01/14 02:52:39;;;;;;;12.17;3.57;;;9.80;99.90;;;;;;5042788;28;20310;-78
2022/01/14 02:55:15;;;;;;;10.97;3.73;;;9.80;99.90;;;;;;5044220;28;20311;-78
2022/01/14 02:57:43;;;;;;;9.73;3.13;;;9.80;99.90;;;;;;5044634;28;20238;-78
2022/01/14 03:00:12;;;;;;;14.33;3.30;;;9.80;99.90;;;;;;5030603;28;20269;-78
2022/01/14 03:02:44;;;;;;;11.13;3.23;;;9.80;99.90;;;;;;5045168;28;20260;-78
2022/01/14 03:05:11;;;;;;;10.47;3.43;;;9.80;99.90;;;;;;5027305;28;20785;-78
2022/01/14 03:07:40;;;;;;;12.97;3.37;;;9.80;99.90;;;;;;5044680;28;20272;-79
2022/01/14 03:10:09;;;;;;;7.70;2.93;;;9.80;99.90;;;;;;5040156;28;20225;-77
2022/01/14 03:12:36;;;;;;;13.57;3.53;;;9.90;99.90;;;;;;5030619;28;20234;-78
2022/01/14 03:15:04;;;;;;;12.43;3.30;;;9.90;99.90;;;;;;5040982;28;20291;-78
2022/01/14 03:17:30;;;;;;;13.43;3.47;;;9.90;99.90;;;;;;5047933;28;20330;-78
2022/01/14 03:20:00;;;;;;;8.50;3.07;;;9.90;99.90;;;;;;5046163;28;20288;-78
2022/01/14 03:22:30;;;;;;;11.97;3.40;;;9.90;99.90;;;;;;5044622;28;20234;-78
2022/01/14 03:27:43;;;;;;;9.57;3.33;;;9.90;99.90;;;;;;5025269;28;20313;-78
2022/01/14 03:30:12;;;;;;;8.23;3.30;;;9.90;99.90;;;;;;5027242;28;20218;-78
2022/01/14 03:32:39;;;;;;;10.00;3.33;;;9.90;99.90;;;;;;5027225;28;20723;-78
2022/01/14 03:35:07;;;;;;;15.10;3.33;;;9.90;99.90;;;;;;5038489;28;20222;-78
2022/01/14 03:37:34;;;;;;;12.37;4.20;;;9.90;99.90;;;;;;5043379;28;20234;-78
2022/01/14 03:40:04;;;;;;;12.50;3.50;;;9.90;99.90;;;;;;5037328;28;20356;-78
2022/01/14 03:42:30;;;;;;;8.60;3.63;;;9.90;99.90;;;;;;5041924;28;20238;-78
2022/01/14 03:44:57;;;;;;;10.17;3.60;;;10.00;99.90;;;;;;5032850;28;22359;-78
2022/01/14 03:47:24;;;;;;;10.93;3.63;;;10.00;99.90;;;;;;5036438;28;20243;-79
2022/01/14 03:49:51;;;;;;;9.90;3.70;;;10.00;99.90;;;;;;5048381;28;20248;-78
2022/01/14 03:52:18;;;;;;;12.93;4.27;;;10.00;99.90;;;;;;5020675;28;20226;-78
2022/01/14 03:54:45;;;;;;;14.17;3.90;;;10.00;99.90;;;;;;5041050;28;20246;-78
2022/01/14 03:57:13;;;;;;;12.00;3.83;;;10.00;99.90;;;;;;5047050;28;20257;-77
2022/01/14 03:59:40;;;;;;;12.97;4.03;;;10.00;99.90;;;;;;5045942;28;20223;-77
2022/01/14 04:02:06;;;;;;;16.67;4.37;;;10.00;99.90;;;;;;5024451;28;20229;-77
2022/01/14 04:04:35;;;;;;;11.73;4.57;;;10.00;99.90;;;;;;5031847;28;20604;-78
2022/01/14 04:07:02;;;;;;;11.00;3.60;;;10.00;99.90;;;;;;5026437;28;20757;-77
2022/01/14 04:09:29;;;;;;;11.97;4.57;;;10.00;99.90;;;;;;5019457;28;20225;-77
2022/01/14 04:12:00;;;;;;;13.63;3.77;;;10.00;99.90;;;;;;5041021;28;20234;-77
2022/01/14 04:17:13;;;;;;;14.27;3.90;;;10.00;99.90;;;;;;5037064;28;20636;-78
2022/01/14 04:19:40;;;;;;;10.83;3.97;;;10.00;99.90;;;;;;5029047;28;20790;-78
2022/01/14 04:22:07;;;;;;;12.67;3.87;;;10.00;99.90;;;;;;5053133;28;20222;-78
2022/01/14 04:24:33;;;;;;;10.80;3.73;;;10.00;99.90;;;;;;5048345;28;20245;-78
2022/01/14 04:27:00;;;;;;;15.43;4.40;;;10.00;99.90;;;;;;5044181;28;20231;-79
2022/01/14 04:29:28;;;;;;;11.10;4.30;;;10.00;99.90;;;;;;5045844;28;20813;-78
2022/01/14 04:31:55;;;;;;;15.67;3.90;;;10.00;99.90;;;;;;5020940;28;20576;-78
2022/01/14 04:34:21;;;;;;;12.17;4.30;;;10.10;99.90;;;;;;5046407;28;20218;-78
2022/01/14 04:36:48;;;;;;;9.83;4.10;;;10.10;99.90;;;;;;5036025;28;20306;-78
2022/01/14 04:39:15;;;;;;;9.60;3.77;;;10.00;99.90;;;;;;5027029;28;20224;-78
2022/01/14 04:41:42;;;;;;;17.07;4.50;;;10.10;99.90;;;;;;5020567;28;20239;-78
2022/01/14 04:44:08;;;;;;;10.70;3.90;;;10.10;99.90;;;;;;5027926;28;20223;-78
2022/01/14 04:46:59;;;;;;;10.67;3.83;;;10.10;99.90;;;;;;5031815;28;20264;-79
2022/01/14 04:49:26;;;;;;;14.13;4.30;;;10.10;99.90;;;;;;5033504;28;20396;-78
2022/01/14 04:51:55;;;;;;;15.20;3.93;;;10.10;99.90;;;;;;5042043;28;20229;-79
2022/01/14 04:54:22;;;;;;;12.73;3.50;;;10.10;99.90;;;;;;5028011;28;20228;-78
2022/01/14 04:56:49;;;;;;;11.13;3.80;;;10.10;99.90;;;;;;5023300;28;20686;-79
2022/01/14 04:59:15;;;;;;;11.33;4.20;;;10.10;99.90;;;;;;5045765;28;20227;-79
2022/01/14 05:01:43;;;;;;;11.20;4.03;;;10.10;99.90;;;;;;5043519;28;20231;-78
2022/01/14 05:04:10;;;;;;;12.60;4.33;;;10.10;99.90;;;;;;5041195;28;20224;-77
2022/01/14 05:06:38;;;;;;;13.90;4.40;;;10.10;99.90;;;;;;5042156;28;20231;-78
2022/01/14 05:09:16;;;;;;;9.87;4.20;;;10.10;99.90;;;;;;5046233;28;20224;-79
2022/01/14 05:11:51;;;;;;;12.50;4.57;;;10.10;99.90;;;;;;5041206;28;20225;-80
2022/01/14 05:14:18;;;;;;;8.90;3.40;;;10.10;99.90;;;;;;5025914;28;20550;-83
2022/01/14 05:16:46;;;;;;;13.07;3.97;;;10.10;99.90;;;;;;5037116;28;20224;-81
2022/01/14 05:19:13;;;;;;;11.37;3.80;;;10.10;99.90;;;;;;5027175;28;20218;-82
2022/01/14 05:21:39;;;;;;;13.47;4.07;;;10.10;99.90;;;;;;5043582;28;20733;-82
2022/01/14 05:24:06;;;;;;;12.60;4.23;;;10.10;99.90;;;;;;5045581;28;20232;-81
2022/01/14 05:26:33;;;;;;;10.83;3.67;;;10.10;99.90;;;;;;5042250;28;20306;-81
2022/01/14 05:29:00;;;;;;;18.87;3.80;;;10.10;99.90;;;;;;5024402;28;20225;-82
2022/01/14 05:31:41;;;;;;;14.03;4.17;;;10.10;99.90;;;;;;5048998;28;20715;-82
2022/01/14 05:34:09;;;;;;;15.30;3.50;;;10.10;99.90;;;;;;5031782;28;20246;-82
2022/01/14 05:36:36;;;;;;;16.10;3.77;;;10.10;99.90;;;;;;5047824;28;20228;-82
2022/01/14 05:39:05;;;;;;;10.67;3.60;;;10.10;99.90;;;;;;5024105;28;20225;-83
2022/01/14 05:41:32;;;;;;;8.03;3.13;;;10.10;99.90;;;;;;5033072;28;20241;-83
2022/01/14 05:43:59;;;;;;;14.10;3.70;;;10.10;99.90;;;;;;5022098;28;20340;-83
2022/01/14 05:46:26;;;;;;;10.90;3.90;;;10.00;99.90;;;;;;5052780;28;20259;-82
2022/01/14 05:48:53;;;;;;;10.47;4.07;;;10.00;99.90;;;;;;5042705;28;20233;-82
2022/01/14 05:51:21;;;;;;;11.67;3.20;;;10.00;99.90;;;;;;5056055;28;20232;-83
2022/01/14 05:53:47;;;;;;;15.67;3.60;;;10.00;99.90;;;;;;5065440;28;20233;-83
2022/01/14 05:56:14;;;;;;;7.50;3.03;;;10.00;99.90;;;;;;5034353;28;20232;-83
2022/01/14 05:58:41;;;;;;;11.73;3.60;;;10.00;99.90;;;;;;5059553;28;20221;-83
2022/01/14 06:01:07;;;;;;;14.73;3.70;;;10.00;99.90;;;;;;5023651;28;21124;-82
2022/01/14 06:03:34;;;;;;;15.03;3.83;;;10.00;99.90;;;;;;5043592;28;20231;-81
2022/01/14 06:06:01;;;;;;;11.80;3.43;;;9.90;99.90;;;;;;5040770;28;20233;-83
2022/01/14 06:08:29;;;;;;;12.93;3.57;;;9.90;99.90;;;;;;5030803;28;20231;-81
2022/01/14 06:10:55;;;;;;;10.20;3.20;;;9.90;99.90;;;;;;5030804;28;20882;-83
2022/01/14 06:13:22;;;;;;;15.63;3.97;;;9.90;99.90;;;;;;5029733;28;20337;-82
2022/01/14 06:15:49;;;;;;;9.43;2.80;;;9.90;99.90;;;;;;5022674;28;20230;-82
2022/01/14 06:18:16;;;;;;;14.30;3.80;;;9.90;99.90;;;;;;5028934;28;20226;-81
2022/01/14 06:20:43;;;;;;;10.90;3.60;;;9.80;99.90;;;;;;5049978;28;20238;-81
2022/01/14 06:23:10;;;;;;;12.33;3.63;;;9.80;99.90;;;;;;5024312;28;20237;-82
2022/01/14 06:25:38;;;;;;;16.17;4.30;;;9.80;99.90;;;;;;5025988;28;20230;-81
2022/01/14 06:28:05;;;;;;;12.33;3.80;;;9.80;99.90;;;;;;5041627;28;20233;-81
2022/01/14 06:30:32;;;;;;;11.60;4.13;;;9.80;99.90;;;;;;5041850;28;20272;-81
2022/01/14 06:32:58;;;;;;;9.67;3.73;;;9.80;99.90;;;;;;5049109;28;20235;-81
2022/01/14 06:35:25;;;;;;;15.17;3.80;;;9.80;99.90;;;;;;5052762;28;20261;-82
2022/01/14 06:37:52;;;;;;;8.63;3.10;;;9.80;99.90;;;;;;5025751;28;20958;-81
2022/01/14 06:40:18;;;;;;;19.67;4.30;;;9.80;99.90;;;;;;5046622;28;20231;-82
2022/01/14 06:42:47;;;;;;;12.47;3.70;;;9.80;99.90;;;;;;5021141;28;20388;-81
2022/01/14 06:45:14;;;;;;;15.83;4.30;;;9.80;99.90;;;;;;5026024;28;20229;-81
2022/01/14 06:47:40;;;;;;;12.87;3.40;;;9.70;99.90;;;;;;5049604;28;20660;-82
2022/01/14 06:50:08;;;;;;;13.87;3.73;;;9.70;99.90;;;;;;5048594;28;20312;-81
2022/01/14 06:52:34;;;;;;;14.00;3.47;;;9.70;99.90;;;;;;5046926;28;20326;-81
2022/01/14 06:55:01;;;;;;;12.03;3.30;;;9.80;99.90;;;;;;5021299;28;20604;-81
2022/01/14 06:57:28;;;;;;;13.23;3.47;;;9.70;99.90;;;;;;5042291;28;20330;-81
2022/01/14 06:59:56;;;;;;;16.13;3.60;;;9.80;99.90;;;;;;5021659;28;20225;-81
2022/01/14 07:02:23;;;;;;;16.67;3.53;;;9.70;99.90;;;;;;5050226;28;20227;-81
2022/01/14 07:04:49;;;;;;;16.43;3.63;;;9.70;99.90;;;;;;5045161;28;20524;-81
2022/01/14 07:07:16;;;;;;;14.37;3.63;;;9.70;99.90;;;;;;5026658;28;20223;-82
2022/01/14 07:09:56;;;;;;;10.33;3.33;;;9.70;99.90;;;;;;5026482;28;20294;-81
2022/01/14 07:12:24;;;;;;;12.03;3.43;;;9.70;99.90;;;;;;5019371;28;20317;-81
2022/01/14 07:14:50;;;;;;;22.30;4.77;;;9.70;99.90;;;;;;5047754;28;20225;-81
2022/01/14 07:17:19;;;;;;;13.80;3.30;;;9.70;99.90;;;;;;5051719;28;20225;-81
2022/01/14 07:19:49;;;;;;;11.83;3.37;;;9.80;99.90;;;;;;5034024;28;20230;-81
2022/01/14 07:22:15;;;;;;;12.30;3.90;;;9.70;99.90;;;;;;5046522;28;20623;-81
2022/01/14 07:24:42;;;;;;;13.90;3.63;;;9.80;99.90;;;;;;5030564;28;20231;-81
2022/01/14 07:27:09;;;;;;;18.40;4.00;;;9.70;99.90;;;;;;5051171;28;20224;-81
2022/01/14 07:29:35;;;;;;;10.27;3.10;;;9.70;99.90;;;;;;5031524;28;20612;-81
2022/01/14 07:32:03;;;;;;;13.40;3.73;;;9.70;99.90;;;;;;5056814;28;20225;-81
2022/01/14 07:34:31;;;;;;;9.50;4.00;;;9.70;99.90;;;;;;5051119;28;20676;-81
2022/01/14 07:36:57;;;;;;;19.50;4.60;;;9.70;99.90;;;;;;5030644;28;20228;-81
2022/01/14 07:39:24;;;;;;;15.03;3.97;;;9.70;99.90;;;;;;5030058;28;20232;-81
2022/01/14 07:41:51;;;;;;;16.33;4.13;;;9.70;99.90;;;;;;5043722;28;20249;-82
2022/01/14 07:44:18;;;;;;;18.23;5.57;;;9.70;99.90;;;;;;5043934;28;20221;-81
2022/01/14 07:46:47;;;;;;;13.77;4.30;;;9.70;99.90;;;;;;5054922;28;20230;-81
2022/01/14 07:49:14;;;;;;;15.27;3.90;;;9.80;99.90;;;;;;5049189;28;20227;-81
2022/01/14 07:51:42;;;;;;;12.83;3.60;;;9.80;99.90;;;;;;5035426;28;20240;-81
2022/01/14 07:54:10;;;;;;;14.73;4.67;;;9.80;99.90;;;;;;5031567;28;20231;-81
2022/01/14 07:56:39;;;;;;;15.50;3.67;;;9.80;99.90;;;;;;5051112;28;20233;-81
2022/01/14 07:59:07;;;;;;;14.10;4.83;;;9.80;99.90;;;;;;5051283;28;20231;-81
2022/01/14 08:01:36;;;;;;;20.20;4.70;;;9.80;99.90;;;;;;5047817;28;20230;-81
2022/01/14 08:04:04;;;;;;;13.07;4.33;;;9.80;99.90;;;;;;5036394;28;20890;-81
2022/01/14 08:06:32;;;;;;;18.60;4.07;;;9.80;99.90;;;;;;5032504;28;20231;-81
2022/01/14 08:09:01;;;;;;;14.27;4.63;;;9.80;99.90;;;;;;5021088;28;20311;-81
2022/01/14 08:11:27;;;;;;;17.73;4.13;;;9.80;99.90;;;;;;5044695;28;20261;-81
2022/01/14 08:13:54;;;;;;;17.53;5.20;;;9.80;99.90;;;;;;5053600;28;20233;-81
2022/01/14 08:16:21;;;;;;;16.70;4.10;;;9.80;99.90;;;;;;5029739;28;20227;-81
2022/01/14 08:18:47;;;;;;;18.40;4.43;;;9.80;99.90;;;;;;5032008;28;20257;-81
2022/01/14 08:21:16;;;;;;;16.87;4.57;;;9.80;99.90;;;;;;5029488;28;20248;-82
2022/01/14 08:23:43;;;;;;;17.50;4.07;;;9.80;99.90;;;;;;5026532;28;20230;-81
2022/01/14 08:26:11;;;;;;;19.23;5.10;;;9.90;99.90;;;;;;5021525;28;20234;-81
2022/01/14 08:28:38;;;;;;;14.20;3.77;;;9.90;99.90;;;;;;5026225;28;20242;-81
2022/01/14 08:31:05;;;;;;;20.93;4.80;;;9.90;99.90;;;;;;5043027;28;20429;-81
2022/01/14 08:33:31;;;;;;;17.60;4.33;;;9.90;99.90;;;;;;5043925;28;20287;-81
2022/01/14 08:35:58;;;;;;;17.30;5.00;;;9.90;99.90;;;;;;5024349;28;20226;-82
2022/01/14 08:38:25;;;;;;;20.47;5.10;;;9.90;99.90;;;;;;5022454;28;20231;-81
2022/01/14 08:40:51;;;;;;;15.93;4.90;;;9.90;99.90;;;;;;5031504;28;20243;-81
2022/01/14 08:43:20;;;;;;;16.10;4.40;;;9.90;99.90;;;;;;5049249;28;20235;-82
2022/01/14 08:45:47;;;;;;;19.73;4.83;;;9.90;99.90;;;;;;5058873;28;20243;-81
2022/01/14 08:48:14;;;;;;;11.73;4.23;;;9.90;99.90;;;;;;5033916;28;20771;-80
2022/01/14 08:50:41;;;;;;;18.00;3.93;;;9.90;99.90;;;;;;5032119;28;20308;-81
2022/01/14 08:53:13;;;;;;;21.93;4.30;;;9.90;99.90;;;;;;5025262;28;20231;-82
2022/01/14 08:55:40;;;;;;;16.90;4.10;;;9.90;99.90;;;;;;5044526;28;20238;-81
2022/01/14 08:58:09;;;;;;;16.23;4.30;;;9.90;99.90;;;;;;5057751;28;20256;-81
2022/01/14 09:00:37;;;;;;;18.27;4.53;;;9.90;99.90;;;;;;5045436;28;20744;-81
2022/01/14 09:03:05;;;;;;;16.97;5.07;;;9.90;99.90;;;;;;5046691;28;20312;-81
2022/01/14 09:05:32;;;;;;;27.23;4.70;;;9.90;99.90;;;;;;5042166;28;20237;-81
2022/01/14 09:08:00;;;;;;;18.30;4.83;;;9.90;99.90;;;;;;5045890;28;20228;-80
2022/01/14 09:10:27;;;;;;;15.77;4.00;;;9.90;99.90;;;;;;5045098;28;20336;-80
2022/01/14 09:12:54;;;;;;;17.27;4.13;;;9.90;99.90;;;;;;5027892;28;21026;-80
2022/01/14 09:15:20;;;;;;;18.80;4.83;;;10.00;99.90;;;;;;5050738;28;20337;-81
2022/01/14 09:17:49;;;;;;;22.57;5.03;;;9.90;99.90;;;;;;5047469;28;20231;-80
2022/01/14 09:20:17;;;;;;;12.10;4.43;;;10.00;99.90;;;;;;5056488;28;20240;-80
2022/01/14 09:22:48;;;;;;;18.10;4.80;;;10.00;99.90;;;;;;5030682;28;20234;-80
2022/01/14 09:25:16;;;;;;;12.53;3.87;;;10.00;99.90;;;;;;5045187;28;20315;-80
2022/01/14 09:27:43;;;;;;;16.93;4.30;;;10.00;99.90;;;;;;5028566;28;20599;-81
2022/01/14 09:30:11;;;;;;;18.93;4.20;;;10.00;99.90;;;;;;5058604;28;20228;-80
2022/01/14 09:32:38;;;;;;;14.90;4.17;;;10.00;99.90;;;;;;5035602;28;20232;-80
2022/01/14 09:35:07;;;;;;;13.23;4.27;;;10.00;99.90;;;;;;5031139;28;20233;-80
2022/01/14 09:37:35;;;;;;;14.17;3.93;;;10.00;99.90;;;;;;5038326;28;20227;-81
2022/01/14 09:40:02;;;;;;;16.13;5.13;;;10.00;99.90;;;;;;5050752;28;20648;-82
2022/01/14 09:42:30;;;;;;;15.27;4.93;;;10.00;99.90;;;;;;5043310;28;20239;-81
2022/01/14 09:44:57;;;;;;;15.30;5.17;;;10.00;99.90;;;;;;5037983;28;20778;-80
2022/01/14 09:47:24;;;;;;;16.10;5.33;;;10.00;99.90;;;;;;5056629;28;20237;-80
2022/01/14 09:49:50;;;;;;;18.00;4.43;;;10.00;99.90;;;;;;5026962;28;20250;-81
2022/01/14 09:52:19;;;;;;;14.77;4.87;;;10.00;99.90;;;;;;5057316;28;20864;-81
2022/01/14 09:54:48;;;;;;;13.83;5.03;;;10.00;99.90;;;;;;5032839;28;20222;-81
2022/01/14 09:57:16;;;;;;;13.70;4.70;;;10.00;99.90;;;;;;5030166;28;20246;-81
2022/01/14 09:59:42;;;;;;;17.33;5.60;;;10.00;99.90;;;;;;5029836;28;20741;-81
2022/01/14 10:02:09;;;;;;;14.27;5.07;;;10.00;99.90;;;;;;5035922;28;20226;-81
2022/01/14 10:04:38;;;;;;;14.93;5.13;;;10.10;99.90;;;;;;5044697;28;20613;-81
2022/01/14 10:07:05;;;;;;;14.40;5.43;;;10.10;99.90;;;;;;5029201;28;20232;-82
2022/01/14 10:09:36;;;;;;;16.53;5.20;;;10.10;99.90;;;;;;5029174;28;20258;-81
2022/01/14 10:12:06;;;;;;;17.73;5.43;;;10.10;99.90;;;;;;5056775;28;20229;-81
2022/01/14 10:14:35;;;;;;;15.83;5.27;;;10.10;99.90;;;;;;5030712;28;20253;-82
2022/01/14 10:17:04;;;;;;;14.73;5.13;;;10.10;99.90;;;;;;5027533;28;20231;-81
2022/01/14 10:19:35;;;;;;;16.60;5.20;;;10.20;99.90;;;;;;5029433;28;20234;-81
2022/01/14 10:22:01;;;;;;;13.53;4.60;;;10.20;99.90;;;;;;5046704;28;20313;-81
2022/01/14 10:24:31;;;;;;;10.80;4.40;;;10.20;99.90;;;;;;5025890;28;20242;-80
2022/01/14 10:27:03;;;;;;;11.47;4.57;;;10.20;99.90;;;;;;5027313;28;20226;-81
2022/01/14 10:29:33;;;;;;;10.53;4.70;;;10.20;99.90;;;;;;5025029;28;20309;-81
2022/01/14 10:32:02;;;;;;;11.07;4.40;;;10.20;99.90;;;;;;5023490;28;20238;-81
2022/01/14 10:34:30;;;;;;;16.17;4.30;;;10.20;99.90;;;;;;5023627;28;20652;-81
2022/01/14 10:37:12;;;;;;;9.23;4.07;;;10.30;99.90;;;;;;5034890;28;20236;-81
2022/01/14 10:39:45;;;;;;;12.13;4.83;;;10.30;99.90;;;;;;5029252;28;20368;-80
2022/01/14 10:42:29;;;;;;;12.30;5.27;;;10.30;99.90;;;;;;5042210;28;20227;-80
2022/01/14 10:44:56;;;;;;;14.10;3.60;;;10.30;99.90;;;;;;5038536;28;21738;-80
2022/01/14 10:47:25;;;;;;;9.87;3.50;;;10.30;99.90;;;;;;5039917;28;20622;-80
2022/01/14 10:49:57;;;;;;;10.77;3.60;;;10.30;99.90;;;;;;5031804;28;20232;-80
2022/01/14 10:52:25;;;;;;;8.77;2.97;;;10.30;99.90;;;;;;5030042;28;20250;-80
2022/01/14 10:54:54;;;;;;;13.40;3.23;;;10.30;99.90;;;;;;5041719;28;22461;-80
2022/01/14 10:57:23;;;;;;;8.03;2.93;;;10.40;99.90;;;;;;5054053;28;20257;-80
2022/01/14 10:59:54;;;;;;;12.23;3.30;;;10.40;99.90;;;;;;5029217;28;20236;-80
2022/01/14 11:02:39;;;;;;;7.63;2.70;;;10.40;99.90;;;;;;5048936;28;20225;-80
2022/01/14 11:05:08;;;;;;;4.90;2.47;;;10.40;99.90;;;;;;5056512;28;20322;-81
2022/01/14 11:07:35;;;;;;;9.17;3.13;;;10.50;99.90;;;;;;5051811;28;20670;-81
2022/01/14 11:10:12;;;;;;;7.30;2.60;;;10.50;99.90;;;;;;5042693;28;20478;-81
2022/01/14 11:12:40;;;;;;;4.60;2.30;;;10.50;99.90;;;;;;5041111;28;20237;-80
2022/01/14 11:15:10;;;;;;;5.93;2.70;;;10.50;99.90;;;;;;5037705;28;20238;-80
2022/01/14 11:17:38;;;;;;;9.50;2.80;;;10.50;99.90;;;;;;5031881;28;20242;-80
2022/01/14 11:20:06;;;;;;;5.87;2.40;;;10.50;99.90;;;;;;5038304;28;20231;-80
2022/01/14 11:25:29;;;;;;;9.20;2.90;;;10.50;99.90;;;;;;5007259;28;20230;-80
2022/01/14 11:27:59;;;;;;;4.37;2.07;;;10.50;99.90;;;;;;5046123;28;20866;-81
2022/01/14 11:30:34;;;;;;;5.30;2.27;;;10.50;99.90;;;;;;5029687;28;20280;-80
2022/01/14 11:33:03;;;;;;;7.10;2.40;;;10.50;99.90;;;;;;5036522;28;20233;-80
2022/01/14 11:35:30;;;;;;;6.03;2.67;;;10.50;99.90;;;;;;5038344;28;20230;-80
2022/01/14 11:37:57;;;;;;;5.60;2.00;;;10.50;99.90;;;;;;5029951;28;20606;-81
2022/01/14 11:40:24;;;;;;;7.77;2.87;;;10.60;99.90;;;;;;5051633;28;20238;-81
2022/01/14 11:42:58;;;;;;;8.23;3.20;;;10.60;99.90;;;;;;5043850;28;21107;-81
2022/01/14 11:45:53;;;;;;;3.93;2.30;;;10.60;99.90;;;;;;5028477;28;20338;-81
2022/01/14 11:48:35;;;;;;;4.37;2.03;;;10.60;99.90;;;;;;5024123;28;20230;-81
2022/01/14 11:51:03;;;;;;;4.20;1.90;;;10.70;99.90;;;;;;5041490;28;20241;-81
2022/01/14 11:53:40;;;;;;;4.80;1.90;;;10.70;99.90;;;;;;5024420;28;20324;-80
2022/01/14 11:56:28;;;;;;;6.63;1.73;;;10.70;99.90;;;;;;5032543;28;20218;-81
2022/01/14 11:59:43;;;;;;;4.37;1.70;;;10.70;99.90;;;;;;5053760;28;20229;-81
2022/01/14 12:02:41;;;;;;;4.10;1.80;;;10.70;99.90;;;;;;4990163;28;20227;-81
2022/01/14 12:05:16;;;;;;;5.90;2.00;;;10.70;99.90;;;;;;5031604;28;20309;-81
2022/01/14 12:08:11;;;;;;;3.17;1.80;;;10.70;99.90;;;;;;5052643;28;20238;-81
2022/01/14 12:10:40;;;;;;;3.33;2.10;;;10.80;99.90;;;;;;5023349;28;20247;-81
2022/01/14 12:13:22;;;;;;;2.07;1.50;;;10.70;99.90;;;;;;5028004;28;20241;-80
2022/01/14 12:15:57;;;;;;;2.43;1.40;;;10.70;99.90;;;;;;5034039;28;20253;-80
2022/01/14 12:19:17;;;;;;;4.03;1.87;;;10.80;99.90;;;;;;5046294;28;20277;-80
2022/01/14 12:22:00;;;;;;;2.67;1.47;;;10.80;99.90;;;;;;5033013;28;20315;-81
2022/01/14 12:24:32;;;;;;;2.73;1.80;;;10.80;99.90;;;;;;5026706;28;20608;-81
2022/01/14 12:27:45;;;;;;;3.07;1.47;;;10.80;99.90;;;;;;5025645;28;20258;-81
2022/01/14 12:30:17;;;;;;;1.80;1.50;;;10.80;99.90;;;;;;5029584;28;20237;-81
2022/01/14 12:32:49;;;;;;;5.87;1.90;;;10.80;99.90;;;;;;5026525;28;20317;-80
2022/01/14 12:35:18;;;;;;;4.33;1.80;;;10.80;99.90;;;;;;5040841;28;20491;-83
2022/01/14 12:37:51;;;;;;;1.87;1.40;;;10.80;99.90;;;;;;5032016;28;20747;-82
2022/01/14 12:40:20;;;;;;;3.07;1.80;;;10.80;99.90;;;;;;5037701;28;20284;-81
2022/01/14 12:42:50;;;;;;;4.20;1.80;;;10.80;99.90;;;;;;5034988;28;20282;-78
2022/01/14 12:45:32;;;;;;;2.47;1.87;;;10.80;99.90;;;;;;5046150;28;20288;-79
2022/01/14 12:48:19;;;;;;;3.67;1.50;;;10.90;99.90;;;;;;5028622;28;20859;-79
2022/01/14 12:50:47;;;;;;;2.67;1.60;;;10.90;99.90;;;;;;5054261;28;20230;-79
2022/01/14 12:53:20;;;;;;;4.10;1.77;;;10.90;99.90;;;;;;5042664;28;20217;-79
2022/01/14 12:55:47;;;;;;;2.80;1.50;;;10.90;99.90;;;;;;5039776;28;20260;-79
2022/01/14 12:58:14;;;;;;;3.60;1.90;;;10.90;99.90;;;;;;5048051;28;20246;-80
2022/01/14 13:00:42;;;;;;;2.67;1.70;;;10.90;99.90;;;;;;5064390;28;20332;-79
2022/01/14 13:03:17;;;;;;;3.20;1.80;;;10.90;99.90;;;;;;5045419;28;21083;-79
2022/01/14 13:05:45;;;;;;;4.13;1.77;;;11.00;99.90;;;;;;5056728;28;20295;-79
2022/01/14 13:08:12;;;;;;;2.30;1.87;;;10.90;99.90;;;;;;5066135;28;20296;-79
2022/01/14 13:10:39;;;;;;;2.40;1.50;;;10.90;99.90;;;;;;5050467;28;20234;-80
2022/01/14 13:13:06;;;;;;;3.37;1.83;;;10.90;99.90;;;;;;5031884;28;20319;-81